Wisby Teak — LAHV7 — position and weather

sailwx.info

Track history (hours):
 
Tides and Currents Weather Stations Pressure Air Temp Water Temp Dewpoint Dewpoint Depression Visibility Wind Speed Wind Dir Waves Ship Positions

Wisby Teak

Last reported at 2018-Jan-22 10:08 UTC. Time now 2018-Jan-23 23:33 UTC.
Position N 36°06' W 005°23'.

Length 100 m; draft 6.2 m.

Type: Ship (hazmat cat B). MMSI: 259944000.

Date/timePositionNaut miles runAvg speedWind from/ knotsBaromVisibWave heightAir tempDewpointWater temp
2018-Jan-22 10:08N 36°06' W 005°23'4 5.0
2018-Jan-22 09:18N 36°04' W 005°18'3 1.3
2018-Jan-22 06:45N 36°03' W 005°14'2 6.8
2018-Jan-22 06:31N 36°03' W 005°12'  
2018-Jan-19 23:22N 35°49' W 004°27'410.9
2018-Jan-19 22:58N 35°50' W 004°32'510.9
2018-Jan-19 22:28N 35°51' W 004°39'510.9
2018-Jan-19 22:00N 35°52' W 004°45'510.9
2018-Jan-19 21:31N 35°54' W 004°51'510.9
2018-Jan-19 21:00N 35°55' W 004°58'611.2
2018-Jan-19 20:30N 35°56' W 005°05'612.8
2018-Jan-19 20:00N 35°58' W 005°12'612.5
2018-Jan-19 19:31N 35°59' W 005°20'612.1
2018-Jan-19 19:01N 35°57' W 005°27'4 7.8
2018-Jan-19 18:30N 35°54' W 005°30'0 0.0
2018-Jan-19 17:58N 35°54' W 005°30'0 0.0
2018-Jan-19 17:28N 35°54' W 005°30'0 0.0
2018-Jan-19 16:58N 35°54' W 005°30'0 0.0
2018-Jan-19 16:28N 35°54' W 005°30'0 0.0
2018-Jan-19 15:58N 35°54' W 005°30'0 0.0
2018-Jan-19 15:28N 35°54' W 005°30'0 0.0
2018-Jan-19 14:55N 35°54' W 005°30'0 0.0
2018-Jan-19 14:28N 35°54' W 005°30'0 0.0
2018-Jan-19 13:52N 35°54' W 005°30'0 0.0
2018-Jan-19 13:28N 35°54' W 005°30'0 0.0
2018-Jan-19 12:58N 35°54' W 005°30'0 0.0
2018-Jan-19 12:28N 35°54' W 005°30'0 0.0
2018-Jan-19 11:58N 35°54' W 005°30'0 0.0
2018-Jan-19 11:22N 35°54' W 005°30'0 0.0
2018-Jan-19 10:58N 35°54' W 005°30'0 0.0
2018-Jan-19 10:28N 35°54' W 005°30'0 0.0
2018-Jan-19 09:58N 35°54' W 005°30'0 0.0
2018-Jan-19 09:28N 35°54' W 005°30'0 0.0
2018-Jan-19 08:58N 35°54' W 005°30'0 0.0
2018-Jan-19 08:28N 35°54' W 005°30'0 0.0
2018-Jan-19 07:58N 35°54' W 005°30'0 0.0
2018-Jan-19 07:28N 35°54' W 005°30'0 0.0
2018-Jan-19 06:58N 35°54' W 005°30'0 0.0
2018-Jan-19 06:28N 35°54' W 005°30'0 0.0
2018-Jan-19 05:49N 35°54' W 005°30'0 0.0
2018-Jan-19 05:28N 35°54' W 005°30'0 0.0
2018-Jan-19 04:58N 35°54' W 005°30'0 0.0
2018-Jan-19 04:22N 35°54' W 005°30'0 0.0
2018-Jan-19 03:58N 35°54' W 005°30'0 0.0
2018-Jan-19 03:25N 35°54' W 005°30'0 0.0
2018-Jan-19 02:55N 35°54' W 005°30'0 0.0
2018-Jan-19 01:34N 35°54' W 005°30'0 0.0
2018-Jan-19 01:10N 35°54' W 005°30'0 0.0
2018-Jan-19 00:58N 35°54' W 005°30'0 0.0
2018-Jan-19 00:28N 35°54' W 005°30'0 0.0
2018-Jan-18 23:58N 35°54' W 005°30'0 0.0
2018-Jan-18 23:28N 35°54' W 005°30'0 0.0
2018-Jan-18 22:58N 35°54' W 005°30'0 0.0
2018-Jan-18 22:28N 35°54' W 005°30'0 0.0
2018-Jan-18 22:01N 35°54' W 005°30'1 2.1
2018-Jan-18 21:30N 35°55' W 005°31'1 1.4
2018-Jan-18 21:00N 35°55' W 005°31'1 1.5
2018-Jan-18 20:30N 35°55' W 005°32'0 0.7
2018-Jan-18 20:01N 35°55' W 005°32'1 1.9
2018-Jan-18 19:30N 35°55' W 005°34'4 7.1
2018-Jan-18 19:00N 35°54' W 005°38'18 9.6
2018-Jan-18 17:11N 35°52' W 005°59'  
Track history (hours):
 
Tides and Currents Weather Stations Pressure Air Temp Water Temp Dewpoint Dewpoint Depression Visibility Wind Speed Wind Dir Waves Ship Positions

Wisby Teak

Last reported at 2018-Jan-22 10:08 UTC. Time now 2018-Jan-23 23:33 UTC.
Position N 36°06' W 005°23'.

Length 100 m; draft 6.2 m.

Type: Ship (hazmat cat B). MMSI: 259944000.

Date/timePositionNaut miles runAvg speedWind from/ knotsBaromVisibWave heightAir tempDewpointWater temp
2018-Jan-22 10:08N 36°06' W 005°23'4 5.0
2018-Jan-22 09:18N 36°04' W 005°18'3 1.3
2018-Jan-22 06:45N 36°03' W 005°14'2 6.8
2018-Jan-22 06:31N 36°03' W 005°12'  
2018-Jan-19 23:22N 35°49' W 004°27'410.9
2018-Jan-19 22:58N 35°50' W 004°32'510.9
2018-Jan-19 22:28N 35°51' W 004°39'510.9
2018-Jan-19 22:00N 35°52' W 004°45'510.9
2018-Jan-19 21:31N 35°54' W 004°51'510.9
2018-Jan-19 21:00N 35°55' W 004°58'611.2
2018-Jan-19 20:30N 35°56' W 005°05'612.8
2018-Jan-19 20:00N 35°58' W 005°12'612.5
2018-Jan-19 19:31N 35°59' W 005°20'612.1
2018-Jan-19 19:01N 35°57' W 005°27'4 7.8
2018-Jan-19 18:30N 35°54' W 005°30'0 0.0
2018-Jan-19 17:58N 35°54' W 005°30'0 0.0
2018-Jan-19 17:28N 35°54' W 005°30'0 0.0
2018-Jan-19 16:58N 35°54' W 005°30'0 0.0
2018-Jan-19 16:28N 35°54' W 005°30'0 0.0
2018-Jan-19 15:58N 35°54' W 005°30'0 0.0
2018-Jan-19 15:28N 35°54' W 005°30'0 0.0
2018-Jan-19 14:55N 35°54' W 005°30'0 0.0
2018-Jan-19 14:28N 35°54' W 005°30'0 0.0
2018-Jan-19 13:52N 35°54' W 005°30'0 0.0
2018-Jan-19 13:28N 35°54' W 005°30'0 0.0
2018-Jan-19 12:58N 35°54' W 005°30'0 0.0
2018-Jan-19 12:28N 35°54' W 005°30'0 0.0
2018-Jan-19 11:58N 35°54' W 005°30'0 0.0
2018-Jan-19 11:22N 35°54' W 005°30'0 0.0
2018-Jan-19 10:58N 35°54' W 005°30'0 0.0
2018-Jan-19 10:28N 35°54' W 005°30'0 0.0
2018-Jan-19 09:58N 35°54' W 005°30'0 0.0
2018-Jan-19 09:28N 35°54' W 005°30'0 0.0
2018-Jan-19 08:58N 35°54' W 005°30'0 0.0
2018-Jan-19 08:28N 35°54' W 005°30'0 0.0
2018-Jan-19 07:58N 35°54' W 005°30'0 0.0
2018-Jan-19 07:28N 35°54' W 005°30'0 0.0
2018-Jan-19 06:58N 35°54' W 005°30'0 0.0
2018-Jan-19 06:28N 35°54' W 005°30'0 0.0
2018-Jan-19 05:49N 35°54' W 005°30'0 0.0
2018-Jan-19 05:28N 35°54' W 005°30'0 0.0
2018-Jan-19 04:58N 35°54' W 005°30'0 0.0
2018-Jan-19 04:22N 35°54' W 005°30'0 0.0
2018-Jan-19 03:58N 35°54' W 005°30'0 0.0
2018-Jan-19 03:25N 35°54' W 005°30'0 0.0
2018-Jan-19 02:55N 35°54' W 005°30'0 0.0
2018-Jan-19 01:34N 35°54' W 005°30'0 0.0
2018-Jan-19 01:10N 35°54' W 005°30'0 0.0
2018-Jan-19 00:58N 35°54' W 005°30'0 0.0
2018-Jan-19 00:28N 35°54' W 005°30'0 0.0
2018-Jan-18 23:58N 35°54' W 005°30'0 0.0
2018-Jan-18 23:28N 35°54' W 005°30'0 0.0
2018-Jan-18 22:58N 35°54' W 005°30'0 0.0
2018-Jan-18 22:28N 35°54' W 005°30'0 0.0
2018-Jan-18 22:01N 35°54' W 005°30'1 2.1
2018-Jan-18 21:30N 35°55' W 005°31'1 1.4
2018-Jan-18 21:00N 35°55' W 005°31'1 1.5
2018-Jan-18 20:30N 35°55' W 005°32'0 0.7
2018-Jan-18 20:01N 35°55' W 005°32'1 1.9
2018-Jan-18 19:30N 35°55' W 005°34'4 7.1
2018-Jan-18 19:00N 35°54' W 005°38'18 9.6
2018-Jan-18 17:11N 35°52' W 005°59'  

Dump ship's entire track history